sensor_id;sensor_type;location;lat;lon;timestamp;P1;durP1;ratioP1;P2;durP2;ratioP2
20705;SDS011;10514;49.468;11.044;2022-12-29T00:01:46;1.70;;;1.30;;
20705;SDS011;10514;49.468;11.044;2022-12-29T00:04:12;2.00;;;1.00;;
20705;SDS011;10514;49.468;11.044;2022-12-29T00:06:39;1.23;;;1.00;;
20705;SDS011;10514;49.468;11.044;2022-12-29T00:09:05;4.07;;;1.57;;
20705;SDS011;10514;49.468;11.044;2022-12-29T00:11:31;2.33;;;1.00;;
20705;SDS011;10514;49.468;11.044;2022-12-29T00:13:57;2.13;;;1.10;;
20705;SDS011;10514;49.468;11.044;2022-12-29T00:16:42;4.57;;;1.40;;
20705;SDS011;10514;49.468;11.044;2022-12-29T00:19:08;1.80;;;0.80;;
20705;SDS011;10514;49.468;11.044;2022-12-29T00:21:53;3.63;;;1.17;;
20705;SDS011;10514;49.468;11.044;2022-12-29T00:24:37;2.33;;;1.17;;
20705;SDS011;10514;49.468;11.044;2022-12-29T00:27:22;2.37;;;1.20;;
20705;SDS011;10514;49.468;11.044;2022-12-29T00:30:10;3.80;;;1.20;;
20705;SDS011;10514;49.468;11.044;2022-12-29T00:32:55;1.17;;;0.97;;
20705;SDS011;10514;49.468;11.044;2022-12-29T00:35:43;2.57;;;1.40;;
20705;SDS011;10514;49.468;11.044;2022-12-29T00:38:18;1.53;;;1.00;;
20705;SDS011;10514;49.468;11.044;2022-12-29T00:41:03;2.57;;;1.30;;
20705;SDS011;10514;49.468;11.044;2022-12-29T00:43:48;3.03;;;1.57;;
20705;SDS011;10514;49.468;11.044;2022-12-29T00:46:32;2.80;;;1.33;;
20705;SDS011;10514;49.468;11.044;2022-12-29T00:48:59;2.43;;;1.30;;
20705;SDS011;10514;49.468;11.044;2022-12-29T00:51:44;3.50;;;1.23;;
20705;SDS011;10514;49.468;11.044;2022-12-29T00:54:10;2.37;;;1.00;;
20705;SDS011;10514;49.468;11.044;2022-12-29T00:56:36;2.30;;;1.10;;
20705;SDS011;10514;49.468;11.044;2022-12-29T00:59:02;1.70;;;1.20;;
20705;SDS011;10514;49.468;11.044;2022-12-29T01:01:29;7.50;;;1.23;;
20705;SDS011;10514;49.468;11.044;2022-12-29T01:03:55;3.20;;;1.30;;
20705;SDS011;10514;49.468;11.044;2022-12-29T01:06:21;1.57;;;1.13;;
20705;SDS011;10514;49.468;11.044;2022-12-29T01:08:48;2.27;;;1.30;;
20705;SDS011;10514;49.468;11.044;2022-12-29T01:11:37;1.43;;;1.00;;
20705;SDS011;10514;49.468;11.044;2022-12-29T01:14:03;1.57;;;1.03;;
20705;SDS011;10514;49.468;11.044;2022-12-29T01:16:29;3.03;;;1.40;;
20705;SDS011;10514;49.468;11.044;2022-12-29T01:18:55;5.47;;;1.30;;
20705;SDS011;10514;49.468;11.044;2022-12-29T01:21:21;3.37;;;1.40;;
20705;SDS011;10514;49.468;11.044;2022-12-29T01:23:47;1.67;;;1.10;;
20705;SDS011;10514;49.468;11.044;2022-12-29T01:26:14;1.70;;;1.10;;
20705;SDS011;10514;49.468;11.044;2022-12-29T01:28:40;2.93;;;1.67;;
20705;SDS011;10514;49.468;11.044;2022-12-29T01:31:07;1.53;;;1.07;;
20705;SDS011;10514;49.468;11.044;2022-12-29T01:33:33;2.97;;;1.20;;
20705;SDS011;10514;49.468;11.044;2022-12-29T01:36:03;2.33;;;1.23;;
20705;SDS011;10514;49.468;11.044;2022-12-29T01:38:29;1.53;;;1.10;;
20705;SDS011;10514;49.468;11.044;2022-12-29T01:40:55;3.73;;;1.30;;
20705;SDS011;10514;49.468;11.044;2022-12-29T01:43:21;2.57;;;1.20;;
20705;SDS011;10514;49.468;11.044;2022-12-29T01:45:48;2.77;;;1.60;;
20705;SDS011;10514;49.468;11.044;2022-12-29T01:48:15;1.73;;;0.93;;
20705;SDS011;10514;49.468;11.044;2022-12-29T01:50:43;1.73;;;1.10;;
20705;SDS011;10514;49.468;11.044;2022-12-29T01:53:13;1.80;;;1.13;;
20705;SDS011;10514;49.468;11.044;2022-12-29T01:55:44;2.00;;;1.23;;
20705;SDS011;10514;49.468;11.044;2022-12-29T01:58:11;1.67;;;1.00;;
20705;SDS011;10514;49.468;11.044;2022-12-29T02:00:39;5.80;;;1.23;;
20705;SDS011;10514;49.468;11.044;2022-12-29T02:03:05;2.40;;;1.23;;
20705;SDS011;10514;49.468;11.044;2022-12-29T02:07:58;3.30;;;1.67;;
20705;SDS011;10514;49.468;11.044;2022-12-29T02:10:26;2.47;;;1.30;;
20705;SDS011;10514;49.468;11.044;2022-12-29T02:12:53;1.40;;;1.10;;
20705;SDS011;10514;49.468;11.044;2022-12-29T02:15:21;2.13;;;1.10;;
20705;SDS011;10514;49.468;11.044;2022-12-29T02:17:59;2.20;;;1.30;;
20705;SDS011;10514;49.468;11.044;2022-12-29T02:20:50;1.40;;;1.07;;
20705;SDS011;10514;49.468;11.044;2022-12-29T02:26:44;1.90;;;1.23;;
20705;SDS011;10514;49.468;11.044;2022-12-29T02:29:17;2.23;;;1.57;;
20705;SDS011;10514;49.468;11.044;2022-12-29T02:37:03;1.37;;;0.97;;
20705;SDS011;10514;49.468;11.044;2022-12-29T02:39:37;2.33;;;1.40;;
20705;SDS011;10514;49.468;11.044;2022-12-29T02:44:42;2.43;;;0.87;;
20705;SDS011;10514;49.468;11.044;2022-12-29T02:47:21;1.27;;;0.90;;
20705;SDS011;10514;49.468;11.044;2022-12-29T02:49:57;1.90;;;1.07;;
20705;SDS011;10514;49.468;11.044;2022-12-29T02:52:31;2.37;;;1.30;;
20705;SDS011;10514;49.468;11.044;2022-12-29T02:55:02;1.53;;;1.03;;
20705;SDS011;10514;49.468;11.044;2022-12-29T02:57:30;5.17;;;1.20;;
20705;SDS011;10514;49.468;11.044;2022-12-29T03:00:04;1.77;;;1.23;;
20705;SDS011;10514;49.468;11.044;2022-12-29T03:02:37;3.03;;;1.33;;
20705;SDS011;10514;49.468;11.044;2022-12-29T03:05:14;2.23;;;1.23;;
20705;SDS011;10514;49.468;11.044;2022-12-29T03:07:58;3.23;;;1.30;;
20705;SDS011;10514;49.468;11.044;2022-12-29T03:10:41;5.83;;;1.20;;
20705;SDS011;10514;49.468;11.044;2022-12-29T03:20:59;2.10;;;1.17;;
20705;SDS011;10514;49.468;11.044;2022-12-29T03:23:26;4.20;;;1.60;;
20705;SDS011;10514;49.468;11.044;2022-12-29T03:25:53;3.20;;;1.50;;
20705;SDS011;10514;49.468;11.044;2022-12-29T03:28:25;2.27;;;1.30;;
20705;SDS011;10514;49.468;11.044;2022-12-29T03:30:53;1.70;;;1.20;;
20705;SDS011;10514;49.468;11.044;2022-12-29T03:33:21;1.87;;;0.97;;
20705;SDS011;10514;49.468;11.044;2022-12-29T03:35:48;2.50;;;1.10;;
20705;SDS011;10514;49.468;11.044;2022-12-29T03:40:47;1.50;;;0.90;;
20705;SDS011;10514;49.468;11.044;2022-12-29T03:43:14;3.40;;;1.20;;
20705;SDS011;10514;49.468;11.044;2022-12-29T03:45:41;2.63;;;1.30;;
20705;SDS011;10514;49.468;11.044;2022-12-29T03:48:07;2.33;;;1.17;;
20705;SDS011;10514;49.468;11.044;2022-12-29T03:50:33;5.83;;;1.40;;
20705;SDS011;10514;49.468;11.044;2022-12-29T03:52:59;2.63;;;1.30;;
20705;SDS011;10514;49.468;11.044;2022-12-29T03:55:25;1.70;;;1.20;;
20705;SDS011;10514;49.468;11.044;2022-12-29T03:57:51;2.63;;;1.70;;
20705;SDS011;10514;49.468;11.044;2022-12-29T04:00:17;3.07;;;1.20;;
20705;SDS011;10514;49.468;11.044;2022-12-29T04:02:43;3.63;;;1.50;;
20705;SDS011;10514;49.468;11.044;2022-12-29T04:05:09;3.60;;;1.30;;
20705;SDS011;10514;49.468;11.044;2022-12-29T04:07:35;2.13;;;1.00;;
20705;SDS011;10514;49.468;11.044;2022-12-29T04:10:01;1.30;;;1.00;;
20705;SDS011;10514;49.468;11.044;2022-12-29T04:12:27;4.90;;;1.47;;
20705;SDS011;10514;49.468;11.044;2022-12-29T04:14:52;2.40;;;1.10;;
20705;SDS011;10514;49.468;11.044;2022-12-29T04:17:18;1.90;;;1.10;;
20705;SDS011;10514;49.468;11.044;2022-12-29T04:19:44;2.13;;;1.07;;
20705;SDS011;10514;49.468;11.044;2022-12-29T04:22:10;3.77;;;1.03;;
20705;SDS011;10514;49.468;11.044;2022-12-29T04:24:36;1.87;;;1.10;;
20705;SDS011;10514;49.468;11.044;2022-12-29T04:27:02;6.47;;;1.37;;
20705;SDS011;10514;49.468;11.044;2022-12-29T04:29:28;3.90;;;1.40;;
20705;SDS011;10514;49.468;11.044;2022-12-29T04:31:54;1.90;;;1.00;;
20705;SDS011;10514;49.468;11.044;2022-12-29T04:34:20;2.70;;;1.40;;
20705;SDS011;10514;49.468;11.044;2022-12-29T04:36:46;1.60;;;1.13;;
20705;SDS011;10514;49.468;11.044;2022-12-29T04:39:12;1.40;;;0.80;;
20705;SDS011;10514;49.468;11.044;2022-12-29T04:41:38;2.27;;;1.00;;
20705;SDS011;10514;49.468;11.044;2022-12-29T04:44:04;3.00;;;1.10;;
20705;SDS011;10514;49.468;11.044;2022-12-29T04:46:30;1.00;;;0.90;;
20705;SDS011;10514;49.468;11.044;2022-12-29T04:48:56;1.37;;;0.90;;
20705;SDS011;10514;49.468;11.044;2022-12-29T04:51:22;2.00;;;1.00;;
20705;SDS011;10514;49.468;11.044;2022-12-29T04:53:48;1.53;;;1.10;;
20705;SDS011;10514;49.468;11.044;2022-12-29T04:56:14;0.97;;;0.80;;
20705;SDS011;10514;49.468;11.044;2022-12-29T04:58:40;2.97;;;1.20;;
20705;SDS011;10514;49.468;11.044;2022-12-29T05:01:06;2.13;;;1.07;;
20705;SDS011;10514;49.468;11.044;2022-12-29T05:03:32;1.43;;;0.90;;
20705;SDS011;10514;49.468;11.044;2022-12-29T05:05:57;3.33;;;1.20;;
20705;SDS011;10514;49.468;11.044;2022-12-29T05:08:23;2.00;;;1.40;;
20705;SDS011;10514;49.468;11.044;2022-12-29T05:10:50;2.87;;;1.00;;
20705;SDS011;10514;49.468;11.044;2022-12-29T05:13:16;1.60;;;1.10;;
20705;SDS011;10514;49.468;11.044;2022-12-29T05:15:45;2.00;;;1.07;;
20705;SDS011;10514;49.468;11.044;2022-12-29T05:18:11;2.17;;;1.20;;
20705;SDS011;10514;49.468;11.044;2022-12-29T05:20:37;3.53;;;1.10;;
20705;SDS011;10514;49.468;11.044;2022-12-29T05:23:03;3.80;;;1.60;;
20705;SDS011;10514;49.468;11.044;2022-12-29T05:25:29;1.33;;;1.10;;
20705;SDS011;10514;49.468;11.044;2022-12-29T05:27:55;3.90;;;1.20;;
20705;SDS011;10514;49.468;11.044;2022-12-29T05:30:21;3.60;;;0.90;;
20705;SDS011;10514;49.468;11.044;2022-12-29T05:32:47;3.67;;;1.23;;
20705;SDS011;10514;49.468;11.044;2022-12-29T05:35:13;6.93;;;1.23;;
20705;SDS011;10514;49.468;11.044;2022-12-29T05:37:39;1.20;;;1.10;;
20705;SDS011;10514;49.468;11.044;2022-12-29T05:40:05;2.63;;;1.20;;
20705;SDS011;10514;49.468;11.044;2022-12-29T05:42:31;3.27;;;1.30;;
20705;SDS011;10514;49.468;11.044;2022-12-29T05:44:57;3.87;;;1.40;;
20705;SDS011;10514;49.468;11.044;2022-12-29T05:47:23;1.93;;;1.00;;
20705;SDS011;10514;49.468;11.044;2022-12-29T05:49:49;3.27;;;1.33;;
20705;SDS011;10514;49.468;11.044;2022-12-29T05:52:16;2.37;;;1.13;;
20705;SDS011;10514;49.468;11.044;2022-12-29T05:54:42;1.37;;;1.00;;
20705;SDS011;10514;49.468;11.044;2022-12-29T05:57:08;3.70;;;1.07;;
20705;SDS011;10514;49.468;11.044;2022-12-29T05:59:34;2.47;;;1.27;;
20705;SDS011;10514;49.468;11.044;2022-12-29T06:02:00;3.33;;;1.10;;
20705;SDS011;10514;49.468;11.044;2022-12-29T06:04:26;2.70;;;1.07;;
20705;SDS011;10514;49.468;11.044;2022-12-29T06:06:52;2.33;;;1.23;;
20705;SDS011;10514;49.468;11.044;2022-12-29T06:09:18;3.93;;;1.60;;
20705;SDS011;10514;49.468;11.044;2022-12-29T06:11:44;2.43;;;1.30;;
20705;SDS011;10514;49.468;11.044;2022-12-29T06:14:10;4.83;;;1.60;;
20705;SDS011;10514;49.468;11.044;2022-12-29T06:16:36;4.07;;;1.57;;
20705;SDS011;10514;49.468;11.044;2022-12-29T06:19:02;1.57;;;1.10;;
20705;SDS011;10514;49.468;11.044;2022-12-29T06:21:28;5.30;;;1.63;;
20705;SDS011;10514;49.468;11.044;2022-12-29T06:23:54;2.97;;;1.40;;
20705;SDS011;10514;49.468;11.044;2022-12-29T06:26:20;4.00;;;1.70;;
20705;SDS011;10514;49.468;11.044;2022-12-29T06:28:46;8.23;;;1.60;;
20705;SDS011;10514;49.468;11.044;2022-12-29T06:31:12;3.80;;;1.47;;
20705;SDS011;10514;49.468;11.044;2022-12-29T06:33:38;2.80;;;1.50;;
20705;SDS011;10514;49.468;11.044;2022-12-29T06:36:04;2.33;;;1.40;;
20705;SDS011;10514;49.468;11.044;2022-12-29T06:38:30;2.57;;;1.20;;
20705;SDS011;10514;49.468;11.044;2022-12-29T06:40:56;3.47;;;1.30;;
20705;SDS011;10514;49.468;11.044;2022-12-29T06:43:22;1.70;;;1.33;;
20705;SDS011;10514;49.468;11.044;2022-12-29T06:45:48;1.93;;;1.10;;
20705;SDS011;10514;49.468;11.044;2022-12-29T06:48:14;6.43;;;1.30;;
20705;SDS011;10514;49.468;11.044;2022-12-29T06:50:40;3.93;;;1.60;;
20705;SDS011;10514;49.468;11.044;2022-12-29T06:53:06;1.53;;;1.00;;
20705;SDS011;10514;49.468;11.044;2022-12-29T06:55:31;2.50;;;1.07;;
20705;SDS011;10514;49.468;11.044;2022-12-29T06:57:58;1.67;;;1.10;;
20705;SDS011;10514;49.468;11.044;2022-12-29T07:00:24;2.60;;;1.00;;
20705;SDS011;10514;49.468;11.044;2022-12-29T07:02:50;1.07;;;0.90;;
20705;SDS011;10514;49.468;11.044;2022-12-29T07:05:17;1.77;;;1.20;;
20705;SDS011;10514;49.468;11.044;2022-12-29T07:07:43;2.63;;;1.33;;
20705;SDS011;10514;49.468;11.044;2022-12-29T07:10:09;10.23;;;4.30;;
20705;SDS011;10514;49.468;11.044;2022-12-29T07:12:35;2.67;;;1.70;;
20705;SDS011;10514;49.468;11.044;2022-12-29T07:15:01;1.43;;;1.00;;
20705;SDS011;10514;49.468;11.044;2022-12-29T07:17:27;2.50;;;1.30;;
20705;SDS011;10514;49.468;11.044;2022-12-29T07:19:53;2.60;;;0.90;;
20705;SDS011;10514;49.468;11.044;2022-12-29T07:22:18;2.30;;;1.00;;
20705;SDS011;10514;49.468;11.044;2022-12-29T07:24:44;3.10;;;1.10;;
20705;SDS011;10514;49.468;11.044;2022-12-29T07:27:10;2.23;;;1.10;;
20705;SDS011;10514;49.468;11.044;2022-12-29T07:29:37;4.13;;;1.43;;
20705;SDS011;10514;49.468;11.044;2022-12-29T07:32:03;2.00;;;1.30;;
20705;SDS011;10514;49.468;11.044;2022-12-29T07:34:29;4.87;;;1.50;;
20705;SDS011;10514;49.468;11.044;2022-12-29T07:36:55;1.40;;;0.97;;
20705;SDS011;10514;49.468;11.044;2022-12-29T07:39:21;6.10;;;1.73;;
20705;SDS011;10514;49.468;11.044;2022-12-29T07:41:47;3.33;;;1.30;;
20705;SDS011;10514;49.468;11.044;2022-12-29T07:44:13;3.60;;;1.57;;
20705;SDS011;10514;49.468;11.044;2022-12-29T07:46:38;3.43;;;1.97;;
20705;SDS011;10514;49.468;11.044;2022-12-29T07:49:04;4.53;;;1.30;;
20705;SDS011;10514;49.468;11.044;2022-12-29T07:51:30;4.47;;;2.53;;
20705;SDS011;10514;49.468;11.044;2022-12-29T07:53:57;5.80;;;3.30;;
20705;SDS011;10514;49.468;11.044;2022-12-29T07:56:25;6.37;;;2.53;;
20705;SDS011;10514;49.468;11.044;2022-12-29T07:58:51;5.17;;;2.40;;
20705;SDS011;10514;49.468;11.044;2022-12-29T08:01:17;2.23;;;1.30;;
20705;SDS011;10514;49.468;11.044;2022-12-29T08:03:43;2.50;;;1.20;;
20705;SDS011;10514;49.468;11.044;2022-12-29T08:06:09;2.17;;;1.10;;
20705;SDS011;10514;49.468;11.044;2022-12-29T08:08:35;5.97;;;1.83;;
20705;SDS011;10514;49.468;11.044;2022-12-29T08:11:01;5.33;;;1.53;;
20705;SDS011;10514;49.468;11.044;2022-12-29T08:13:27;4.37;;;2.37;;
20705;SDS011;10514;49.468;11.044;2022-12-29T08:15:53;2.27;;;1.20;;
20705;SDS011;10514;49.468;11.044;2022-12-29T08:18:19;3.73;;;1.80;;
20705;SDS011;10514;49.468;11.044;2022-12-29T08:20:45;1.80;;;0.87;;
20705;SDS011;10514;49.468;11.044;2022-12-29T08:23:11;2.57;;;1.20;;
20705;SDS011;10514;49.468;11.044;2022-12-29T08:25:37;2.97;;;0.97;;
20705;SDS011;10514;49.468;11.044;2022-12-29T08:28:03;1.40;;;1.00;;
20705;SDS011;10514;49.468;11.044;2022-12-29T08:30:29;2.30;;;1.40;;
20705;SDS011;10514;49.468;11.044;2022-12-29T08:32:55;2.37;;;1.20;;
20705;SDS011;10514;49.468;11.044;2022-12-29T08:35:21;3.07;;;1.03;;
20705;SDS011;10514;49.468;11.044;2022-12-29T08:37:47;2.27;;;1.00;;
20705;SDS011;10514;49.468;11.044;2022-12-29T08:40:13;1.80;;;1.00;;
20705;SDS011;10514;49.468;11.044;2022-12-29T08:42:39;3.17;;;1.37;;
20705;SDS011;10514;49.468;11.044;2022-12-29T08:45:05;1.50;;;1.00;;
20705;SDS011;10514;49.468;11.044;2022-12-29T08:47:31;5.27;;;1.17;;
20705;SDS011;10514;49.468;11.044;2022-12-29T08:49:57;2.30;;;1.03;;
20705;SDS011;10514;49.468;11.044;2022-12-29T08:52:23;1.80;;;1.10;;
20705;SDS011;10514;49.468;11.044;2022-12-29T08:54:49;2.60;;;1.20;;
20705;SDS011;10514;49.468;11.044;2022-12-29T08:57:15;4.33;;;1.50;;
20705;SDS011;10514;49.468;11.044;2022-12-29T08:59:41;1.43;;;0.87;;
20705;SDS011;10514;49.468;11.044;2022-12-29T09:02:10;1.67;;;1.10;;
20705;SDS011;10514;49.468;11.044;2022-12-29T09:04:36;2.23;;;1.30;;
20705;SDS011;10514;49.468;11.044;2022-12-29T09:07:02;1.95;;;1.27;;
20705;SDS011;10514;49.468;11.044;2022-12-29T09:09:28;3.88;;;1.60;;
20705;SDS011;10514;49.468;11.044;2022-12-29T09:11:54;7.67;;;1.30;;
20705;SDS011;10514;49.468;11.044;2022-12-29T09:14:19;1.83;;;1.15;;
20705;SDS011;10514;49.468;11.044;2022-12-29T09:16:46;4.37;;;1.50;;
20705;SDS011;10514;49.468;11.044;2022-12-29T09:19:30;3.83;;;1.40;;
20705;SDS011;10514;49.468;11.044;2022-12-29T09:21:56;1.77;;;1.33;;
20705;SDS011;10514;49.468;11.044;2022-12-29T09:24:22;2.78;;;1.23;;
20705;SDS011;10514;49.468;11.044;2022-12-29T09:26:48;5.55;;;1.40;;
20705;SDS011;10514;49.468;11.044;2022-12-29T09:29:14;3.08;;;1.02;;
20705;SDS011;10514;49.468;11.044;2022-12-29T09:31:40;3.22;;;1.73;;
20705;SDS011;10514;49.468;11.044;2022-12-29T09:34:06;2.55;;;1.55;;
20705;SDS011;10514;49.468;11.044;2022-12-29T09:36:32;2.53;;;1.40;;
20705;SDS011;10514;49.468;11.044;2022-12-29T09:38:58;3.20;;;1.40;;
20705;SDS011;10514;49.468;11.044;2022-12-29T09:41:25;2.92;;;0.95;;
20705;SDS011;10514;49.468;11.044;2022-12-29T09:46:25;1.85;;;1.10;;
20705;SDS011;10514;49.468;11.044;2022-12-29T09:49:07;2.25;;;1.10;;
20705;SDS011;10514;49.468;11.044;2022-12-29T09:51:34;2.22;;;1.20;;
20705;SDS011;10514;49.468;11.044;2022-12-29T09:54:04;2.47;;;1.02;;
20705;SDS011;10514;49.468;11.044;2022-12-29T09:56:45;2.75;;;1.15;;
20705;SDS011;10514;49.468;11.044;2022-12-29T09:59:17;2.40;;;1.35;;
20705;SDS011;10514;49.468;11.044;2022-12-29T10:02:04;2.05;;;1.33;;
20705;SDS011;10514;49.468;11.044;2022-12-29T10:04:36;5.03;;;1.60;;
20705;SDS011;10514;49.468;11.044;2022-12-29T10:09:33;2.38;;;1.23;;
20705;SDS011;10514;49.468;11.044;2022-12-29T10:19:39;2.38;;;1.30;;
20705;SDS011;10514;49.468;11.044;2022-12-29T10:25:18;3.03;;;1.10;;
20705;SDS011;10514;49.468;11.044;2022-12-29T10:27:48;2.50;;;1.63;;
20705;SDS011;10514;49.468;11.044;2022-12-29T10:30:15;3.17;;;1.38;;
20705;SDS011;10514;49.468;11.044;2022-12-29T10:32:54;4.00;;;1.38;;
20705;SDS011;10514;49.468;11.044;2022-12-29T10:35:23;1.65;;;1.20;;
20705;SDS011;10514;49.468;11.044;2022-12-29T10:43:06;2.58;;;1.35;;
20705;SDS011;10514;49.468;11.044;2022-12-29T10:45:38;2.35;;;1.05;;
20705;SDS011;10514;49.468;11.044;2022-12-29T10:48:09;2.85;;;1.10;;
20705;SDS011;10514;49.468;11.044;2022-12-29T10:50:37;4.55;;;1.83;;
20705;SDS011;10514;49.468;11.044;2022-12-29T10:53:07;4.20;;;1.85;;
20705;SDS011;10514;49.468;11.044;2022-12-29T10:55:37;2.30;;;1.00;;
20705;SDS011;10514;49.468;11.044;2022-12-29T10:58:04;5.97;;;1.85;;
20705;SDS011;10514;49.468;11.044;2022-12-29T11:00:31;3.83;;;1.55;;
20705;SDS011;10514;49.468;11.044;2022-12-29T11:08:17;2.67;;;0.98;;
20705;SDS011;10514;49.468;11.044;2022-12-29T11:10:46;4.20;;;1.50;;
20705;SDS011;10514;49.468;11.044;2022-12-29T11:13:28;3.53;;;1.50;;
20705;SDS011;10514;49.468;11.044;2022-12-29T11:15:54;1.75;;;1.13;;
20705;SDS011;10514;49.468;11.044;2022-12-29T11:18:22;2.67;;;1.23;;
20705;SDS011;10514;49.468;11.044;2022-12-29T11:21:23;1.42;;;0.90;;
20705;SDS011;10514;49.468;11.044;2022-12-29T11:23:58;1.48;;;1.25;;
20705;SDS011;10514;49.468;11.044;2022-12-29T11:26:25;4.03;;;1.50;;
20705;SDS011;10514;49.468;11.044;2022-12-29T11:31:30;2.80;;;1.10;;
20705;SDS011;10514;49.468;11.044;2022-12-29T11:33:56;2.78;;;1.60;;
20705;SDS011;10514;49.468;11.044;2022-12-29T11:36:22;2.42;;;1.40;;
20705;SDS011;10514;49.468;11.044;2022-12-29T11:38:50;4.90;;;1.45;;
20705;SDS011;10514;49.468;11.044;2022-12-29T11:41:26;5.25;;;1.73;;
20705;SDS011;10514;49.468;11.044;2022-12-29T11:43:55;11.52;;;4.10;;
20705;SDS011;10514;49.468;11.044;2022-12-29T11:46:24;12.95;;;5.47;;
20705;SDS011;10514;49.468;11.044;2022-12-29T11:48:52;9.02;;;4.18;;
20705;SDS011;10514;49.468;11.044;2022-12-29T11:51:23;6.00;;;1.75;;
20705;SDS011;10514;49.468;11.044;2022-12-29T11:53:51;2.72;;;1.30;;
20705;SDS011;10514;49.468;11.044;2022-12-29T11:56:31;2.33;;;1.38;;
20705;SDS011;10514;49.468;11.044;2022-12-29T11:58:58;3.35;;;1.23;;
20705;SDS011;10514;49.468;11.044;2022-12-29T12:01:44;2.97;;;1.35;;
20705;SDS011;10514;49.468;11.044;2022-12-29T12:04:17;12.43;;;1.52;;
20705;SDS011;10514;49.468;11.044;2022-12-29T12:06:45;1.90;;;1.10;;
20705;SDS011;10514;49.468;11.044;2022-12-29T12:09:19;2.85;;;1.10;;
20705;SDS011;10514;49.468;11.044;2022-12-29T12:11:47;4.80;;;1.25;;
20705;SDS011;10514;49.468;11.044;2022-12-29T12:14:54;7.00;;;1.40;;
20705;SDS011;10514;49.468;11.044;2022-12-29T12:17:12;1.95;;;1.08;;
20705;SDS011;10514;49.468;11.044;2022-12-29T12:19:45;2.10;;;1.40;;
20705;SDS011;10514;49.468;11.044;2022-12-29T12:22:22;5.13;;;1.20;;
20705;SDS011;10514;49.468;11.044;2022-12-29T12:24:57;2.38;;;0.85;;
20705;SDS011;10514;49.468;11.044;2022-12-29T12:27:44;2.35;;;1.10;;
20705;SDS011;10514;49.468;11.044;2022-12-29T12:30:14;1.92;;;1.20;;
20705;SDS011;10514;49.468;11.044;2022-12-29T12:35:15;3.88;;;1.08;;
20705;SDS011;10514;49.468;11.044;2022-12-29T12:55:51;2.55;;;1.10;;
20705;SDS011;10514;49.468;11.044;2022-12-29T13:04:02;2.72;;;1.10;;
20705;SDS011;10514;49.468;11.044;2022-12-29T13:12:02;2.25;;;0.98;;
20705;SDS011;10514;49.468;11.044;2022-12-29T13:17:32;2.42;;;1.23;;
20705;SDS011;10514;49.468;11.044;2022-12-29T13:22:38;2.08;;;1.25;;
20705;SDS011;10514;49.468;11.044;2022-12-29T13:25:25;2.38;;;1.10;;
20705;SDS011;10514;49.468;11.044;2022-12-29T13:27:55;5.50;;;1.50;;
20705;SDS011;10514;49.468;11.044;2022-12-29T13:30:30;6.93;;;2.20;;
20705;SDS011;10514;49.468;11.044;2022-12-29T13:33:11;3.90;;;2.00;;
20705;SDS011;10514;49.468;11.044;2022-12-29T13:38:36;3.65;;;1.63;;
20705;SDS011;10514;49.468;11.044;2022-12-29T13:41:11;2.97;;;1.08;;
20705;SDS011;10514;49.468;11.044;2022-12-29T13:43:52;3.72;;;1.48;;
20705;SDS011;10514;49.468;11.044;2022-12-29T13:46:21;3.92;;;1.10;;
20705;SDS011;10514;49.468;11.044;2022-12-29T13:48:53;3.15;;;1.52;;
20705;SDS011;10514;49.468;11.044;2022-12-29T13:51:20;3.58;;;1.77;;
20705;SDS011;10514;49.468;11.044;2022-12-29T13:53:54;5.82;;;2.10;;
20705;SDS011;10514;49.468;11.044;2022-12-29T13:56:25;4.28;;;1.80;;
20705;SDS011;10514;49.468;11.044;2022-12-29T13:58:58;5.97;;;1.83;;
20705;SDS011;10514;49.468;11.044;2022-12-29T14:01:34;3.53;;;1.55;;
20705;SDS011;10514;49.468;11.044;2022-12-29T14:04:02;3.25;;;1.45;;
20705;SDS011;10514;49.468;11.044;2022-12-29T14:06:29;3.53;;;1.75;;
20705;SDS011;10514;49.468;11.044;2022-12-29T14:09:00;3.88;;;1.83;;
20705;SDS011;10514;49.468;11.044;2022-12-29T14:11:34;2.88;;;1.65;;
20705;SDS011;10514;49.468;11.044;2022-12-29T14:14:21;3.78;;;1.75;;
20705;SDS011;10514;49.468;11.044;2022-12-29T14:16:47;4.40;;;1.67;;
20705;SDS011;10514;49.468;11.044;2022-12-29T14:19:27;2.20;;;1.42;;
20705;SDS011;10514;49.468;11.044;2022-12-29T14:21:59;2.50;;;1.45;;
20705;SDS011;10514;49.468;11.044;2022-12-29T14:26:59;5.93;;;1.42;;
20705;SDS011;10514;49.468;11.044;2022-12-29T14:31:54;4.57;;;1.60;;
20705;SDS011;10514;49.468;11.044;2022-12-29T14:36:56;5.57;;;1.52;;
20705;SDS011;10514;49.468;11.044;2022-12-29T14:44:50;2.85;;;1.48;;
20705;SDS011;10514;49.468;11.044;2022-12-29T14:47:27;1.58;;;1.08;;
20705;SDS011;10514;49.468;11.044;2022-12-29T14:50:57;3.97;;;1.60;;
20705;SDS011;10514;49.468;11.044;2022-12-29T14:58:00;4.03;;;1.98;;
20705;SDS011;10514;49.468;11.044;2022-12-29T15:00:29;4.90;;;2.38;;
20705;SDS011;10514;49.468;11.044;2022-12-29T15:03:04;3.88;;;2.00;;
20705;SDS011;10514;49.468;11.044;2022-12-29T15:05:43;7.20;;;1.80;;
20705;SDS011;10514;49.468;11.044;2022-12-29T15:08:10;4.82;;;2.20;;
20705;SDS011;10514;49.468;11.044;2022-12-29T15:10:42;3.05;;;1.95;;
20705;SDS011;10514;49.468;11.044;2022-12-29T15:13:21;3.35;;;1.95;;
20705;SDS011;10514;49.468;11.044;2022-12-29T15:15:48;4.07;;;2.17;;
20705;SDS011;10514;49.468;11.044;2022-12-29T15:18:28;3.78;;;1.55;;
20705;SDS011;10514;49.468;11.044;2022-12-29T15:20:59;2.95;;;1.88;;
20705;SDS011;10514;49.468;11.044;2022-12-29T15:23:26;4.85;;;1.83;;
20705;SDS011;10514;49.468;11.044;2022-12-29T15:25:58;3.78;;;1.63;;
20705;SDS011;10514;49.468;11.044;2022-12-29T15:28:36;6.95;;;1.85;;
20705;SDS011;10514;49.468;11.044;2022-12-29T15:31:03;4.78;;;1.63;;
20705;SDS011;10514;49.468;11.044;2022-12-29T15:33:30;4.35;;;1.83;;
20705;SDS011;10514;49.468;11.044;2022-12-29T15:35:57;3.03;;;1.85;;
20705;SDS011;10514;49.468;11.044;2022-12-29T15:38:28;3.20;;;1.83;;
20705;SDS011;10514;49.468;11.044;2022-12-29T15:40:55;4.22;;;2.08;;
20705;SDS011;10514;49.468;11.044;2022-12-29T15:43:37;3.85;;;1.73;;
20705;SDS011;10514;49.468;11.044;2022-12-29T15:46:18;1.90;;;1.42;;
20705;SDS011;10514;49.468;11.044;2022-12-29T15:48:45;2.20;;;1.35;;
20705;SDS011;10514;49.468;11.044;2022-12-29T15:51:16;2.58;;;1.65;;
20705;SDS011;10514;49.468;11.044;2022-12-29T15:53:43;3.53;;;1.60;;
20705;SDS011;10514;49.468;11.044;2022-12-29T15:56:13;5.47;;;1.48;;
20705;SDS011;10514;49.468;11.044;2022-12-29T15:58:40;2.33;;;1.75;;
20705;SDS011;10514;49.468;11.044;2022-12-29T16:01:16;3.40;;;1.73;;
20705;SDS011;10514;49.468;11.044;2022-12-29T16:03:42;3.30;;;1.63;;
20705;SDS011;10514;49.468;11.044;2022-12-29T16:08:35;5.90;;;2.55;;
20705;SDS011;10514;49.468;11.044;2022-12-29T16:11:03;5.50;;;2.38;;
20705;SDS011;10514;49.468;11.044;2022-12-29T16:13:34;3.65;;;1.90;;
20705;SDS011;10514;49.468;11.044;2022-12-29T16:16:02;2.95;;;2.00;;
20705;SDS011;10514;49.468;11.044;2022-12-29T16:18:52;2.53;;;2.00;;
20705;SDS011;10514;49.468;11.044;2022-12-29T16:21:20;4.45;;;2.33;;
20705;SDS011;10514;49.468;11.044;2022-12-29T16:23:48;4.53;;;2.63;;
20705;SDS011;10514;49.468;11.044;2022-12-29T16:26:19;7.95;;;3.45;;
20705;SDS011;10514;49.468;11.044;2022-12-29T16:28:47;4.88;;;3.15;;
20705;SDS011;10514;49.468;11.044;2022-12-29T16:31:23;8.23;;;3.00;;
20705;SDS011;10514;49.468;11.044;2022-12-29T16:36:28;6.25;;;2.70;;
20705;SDS011;10514;49.468;11.044;2022-12-29T16:39:08;4.47;;;2.70;;
20705;SDS011;10514;49.468;11.044;2022-12-29T16:41:36;4.60;;;2.03;;
20705;SDS011;10514;49.468;11.044;2022-12-29T16:44:12;4.60;;;2.33;;